Stations météo

réclame
Mon MeteoGroup
Trevico, Italie (16263): Température de l'air & dewpoint: 18.01.2018 12:00:00 - 24.01.2018 12:00:00 (CET)Trevico, Italie (16263): Vitesse du vent: 18.01.2018 12:00:00 - 24.01.2018 12:00:00 (CET)Trevico, Italie (16263): Direction du vent: 18.01.2018 12:00:00 - 24.01.2018 12:00:00 (CET)Trevico, Italie (16263): visibility: 18.01.2018 12:00:00 - 24.01.2018 12:00:00 (CET)
Date & Time tt [°C] td [°C] ff [km/h] ff [knt] dd vv [km]
24.01.2018 12:00:00 - - - - - -
24.01.2018 11:00:00 - - - - - -
24.01.2018 10:00:00 1,2 -3,3 15 8 NE 25
24.01.2018 09:00:00 - - - - - -
24.01.2018 08:00:00 - - - - - -
24.01.2018 07:00:00 0,4 -3,0 21 11 ENE 30
24.01.2018 06:00:00 0,0 -2,0 16 9 NE 10
24.01.2018 05:00:00 0,0 -2,0 15 8 N 10
24.01.2018 04:00:00 0,2 -2,0 15 8 NNE 30
24.01.2018 03:00:00 1,0 -2,0 15 8 NNE 10
24.01.2018 02:00:00 1,0 -1,0 21 11 NNE 10
24.01.2018 01:00:00 1,4 -0,4 15 8 NNE 30
24.01.2018 00:00:00 1,0 -1,0 21 11 NNE 10
23.01.2018 23:00:00 1,0 -1,0 24 13 E 10
23.01.2018 22:00:00 1,4 -0,5 22 12 ENE 30
23.01.2018 21:00:00 1,0 -1,0 22 12 NE 10
23.01.2018 20:00:00 2,0 0,0 24 13 E 10
23.01.2018 19:00:00 1,8 0,5 28 15 E 15
23.01.2018 18:00:00 2,0 1,0 24 13 E 10
23.01.2018 17:00:00 - - - - - -
23.01.2018 16:00:00 2,2 0,9 16 9 E 15
23.01.2018 15:00:00 - - - - - -
23.01.2018 14:00:00 - - - - - -
23.01.2018 13:00:00 2,8 -0,8 18 10 ESE 20
23.01.2018 12:00:00 - - - - - -
23.01.2018 11:00:00 - - - - - -
23.01.2018 10:00:00 -0,8 -3,2 22 12 SE 10
23.01.2018 09:00:00 - - - - - -
23.01.2018 08:00:00 0,0 -1,0 22 12 NE -
23.01.2018 07:00:00 1,0 0,3 21 11 N -
23.01.2018 06:00:00 0,0 0,0 18 10 N -
23.01.2018 05:00:00 0,0 -1,0 18 10 N -
23.01.2018 04:00:00 1,0 -0,2 22 12 NW -
23.01.2018 03:00:00 0,0 -1,0 37 20 N 10
23.01.2018 02:00:00 0,0 -1,0 34 18 NNW 10
23.01.2018 01:00:00 0,8 -2,3 35 19 NNW 20
23.01.2018 00:00:00 0,0 -2,0 34 18 N 10
22.01.2018 23:00:00 0,0 -2,0 29 16 NW 10
22.01.2018 22:00:00 0,2 -1,9 31 17 NNW 20
22.01.2018 21:00:00 0,0 -2,0 29 16 NNW 10
22.01.2018 20:00:00 1,0 -4,0 26 14 NNW 10
22.01.2018 19:00:00 3,0 -3,6 18 10 W 20
22.01.2018 18:00:00 4,0 -2,0 16 9 WNW 10
22.01.2018 17:00:00 - - - - - -
22.01.2018 16:00:00 5,0 -4,3 9 5 N 25
22.01.2018 15:00:00 - - - - - -
22.01.2018 14:00:00 - - - - - -
22.01.2018 13:00:00 2,8 -2,5 9 5 NNW 25
22.01.2018 12:00:00 - - - - - -
22.01.2018 11:00:00 - - - - - -
22.01.2018 10:00:00 -0,2 -5,4 5 3 NE 20
22.01.2018 09:00:00 - - - - - -
22.01.2018 08:00:00 - - - - - -
22.01.2018 07:00:00 -1,0 -4,4 22 12 NE 20
22.01.2018 06:00:00 -1,0 -4,0 15 8 NW 10
22.01.2018 05:00:00 -1,0 -4,0 11 6 N 10
22.01.2018 04:00:00 -0,6 -4,0 15 8 NW 15
22.01.2018 03:00:00 -1,0 -4,0 16 9 N 10
22.01.2018 02:00:00 0,0 -3,0 13 7 N 10
22.01.2018 01:00:00 -0,2 -2,4 9 5 N 15
22.01.2018 00:00:00 0,0 -2,0 13 7 N -
21.01.2018 23:00:00 1,0 -2,0 15 8 N -
21.01.2018 22:00:00 0,8 -1,9 9 5 NE 15
21.01.2018 21:00:00 1,0 -2,0 15 8 E 10
21.01.2018 20:00:00 1,0 -1,0 11 6 N 10
21.01.2018 19:00:00 2,0 -0,6 22 12 NE 15
21.01.2018 18:00:00 2,0 0,0 11 6 NE -
21.01.2018 17:00:00 3,0 1,0 15 8 NE -
21.01.2018 16:00:00 4,0 1,4 18 10 NE -
21.01.2018 15:00:00 5,0 2,0 13 7 N -
21.01.2018 14:00:00 5,0 3,0 16 9 N -
21.01.2018 13:00:00 5,4 3,1 24 13 NW -
21.01.2018 12:00:00 5,0 3,0 31 17 NW -
21.01.2018 11:00:00 5,0 3,0 35 19 NNW -
21.01.2018 10:00:00 4,2 2,6 37 20 W -
21.01.2018 09:00:00 4,0 2,0 29 16 W -
21.01.2018 08:00:00 3,0 2,0 59 32 NNW -
21.01.2018 07:00:00 2,0 0,2 42 23 N -
21.01.2018 06:00:00 2,0 0,0 42 23 WNW -
21.01.2018 05:00:00 2,0 0,0 41 22 NNW -
21.01.2018 04:00:00 2,0 0,2 37 20 NNW -
21.01.2018 03:00:00 2,0 0,0 35 19 NNW -
21.01.2018 02:00:00 2,0 1,0 28 15 N -
21.01.2018 01:00:00 2,0 0,2 22 12 NNW -
21.01.2018 00:00:00 2,0 -1,0 34 18 W 10
20.01.2018 23:00:00 2,0 -1,0 21 11 NNE 10
20.01.2018 22:00:00 2,8 -1,7 26 14 W 12
20.01.2018 21:00:00 3,0 -1,0 16 9 W 10
20.01.2018 20:00:00 3,0 1,0 15 8 W 10
20.01.2018 19:00:00 3,8 0,3 26 14 W 12
20.01.2018 18:00:00 4,0 1,0 15 8 NNW 10
20.01.2018 17:00:00 5,0 1,0 9 5 W 10
20.01.2018 16:00:00 4,8 0,9 4 2 W 30
20.01.2018 15:00:00 - - - - - -
20.01.2018 14:00:00 - - - - - -
20.01.2018 13:00:00 3,8 1,2 8 4 N 12
20.01.2018 12:00:00 - - - - - -
20.01.2018 11:00:00 4,0 2,0 11 6 NNW -
20.01.2018 10:00:00 4,2 1,9 13 7 NW -
20.01.2018 09:00:00 4,0 2,0 18 10 NNW -
20.01.2018 08:00:00 4,0 2,0 22 12 N -
20.01.2018 07:00:00 4,0 1,7 22 12 NNW -
20.01.2018 06:00:00 - - - - - -
20.01.2018 05:00:00 4,0 2,0 28 15 WNW -
20.01.2018 04:00:00 4,0 2,4 21 11 NW -
20.01.2018 03:00:00 4,0 3,0 29 16 NNW -
20.01.2018 02:00:00 4,0 2,0 26 14 N -
20.01.2018 01:00:00 4,2 1,6 31 17 W 12
20.01.2018 00:00:00 4,0 2,0 29 16 SSW 10
19.01.2018 23:00:00 4,0 1,0 34 18 N 10
19.01.2018 22:00:00 4,0 1,0 34 18 NW 12
19.01.2018 21:00:00 4,0 1,0 37 20 WNW 10
19.01.2018 20:00:00 4,0 1,0 28 15 W 10
19.01.2018 19:00:00 4,0 1,7 44 24 WNW 12
19.01.2018 18:00:00 5,0 3,0 35 19 WNW 10
19.01.2018 17:00:00 - - - - - -
19.01.2018 16:00:00 5,6 0,6 29 16 NNW 16
19.01.2018 15:00:00 - - - - - -
19.01.2018 14:00:00 - - - - - -
19.01.2018 13:00:00 5,0 -0,8 37 20 NW 16
19.01.2018 12:00:00 - - - - - -
19.01.2018 11:00:00 - - - - - -
19.01.2018 10:00:00 4,6 -0,4 29 16 NW 25
19.01.2018 09:00:00 - - - - - -
19.01.2018 08:00:00 - - - - - -
19.01.2018 07:00:00 3,4 0,3 48 26 NNW 25
19.01.2018 06:00:00 3,0 1,0 28 15 NNW 10
19.01.2018 05:00:00 3,0 1,0 29 16 NNW -
19.01.2018 04:00:00 3,0 1,0 35 19 NNW -
19.01.2018 03:00:00 3,0 1,0 41 22 NNW -
19.01.2018 02:00:00 3,0 1,0 34 18 NNW -
19.01.2018 01:00:00 2,6 1,1 46 25 NW -
19.01.2018 00:00:00 2,0 1,0 50 27 NNW 10
18.01.2018 23:00:00 2,0 1,0 39 21 NNW 10
18.01.2018 22:00:00 2,0 0,4 41 22 NW 25
18.01.2018 21:00:00 2,0 0,0 48 26 NNW 10
18.01.2018 20:00:00 2,0 0,0 48 26 NNW 10
18.01.2018 19:00:00 1,8 -0,4 44 24 NW 25
18.01.2018 18:00:00 1,0 -2,0 48 26 NW 10
18.01.2018 17:00:00 - - - - - -
18.01.2018 16:00:00 2,4 -11,5 42 23 NNW 30
18.01.2018 15:00:00 - - - - - -
18.01.2018 14:00:00 - - - - - -
18.01.2018 13:00:00 1,8 -21,4 22 12 NNW 30
18.01.2018 12:00:00 - - - - - -

tt = Température de l'air
td = dewpoint
ff = Vitesse du vent
dd = Direction du vent
vv = visibility

stations d'obs. à proximité